createdAt,value
2023-03-15T00:00:57.454Z,8.26
2023-03-15T00:03:26.982Z,8.24
2023-03-15T00:05:55.041Z,8.28
2023-03-15T00:08:23.059Z,8.31
2023-03-15T00:10:51.143Z,8.22
2023-03-15T00:13:19.192Z,8.20
2023-03-15T00:15:48.831Z,8.04
2023-03-15T00:18:18.193Z,8.08
2023-03-15T00:20:48.356Z,8.08
2023-03-15T00:23:17.342Z,8.15
2023-03-15T00:25:46.306Z,8.12
2023-03-15T00:28:15.054Z,8.09
2023-03-15T00:30:43.713Z,8.11
2023-03-15T00:33:14.203Z,8.18
2023-03-15T00:35:44.966Z,8.14
2023-03-15T00:38:14.828Z,8.13
2023-03-15T00:40:43.544Z,8.03
2023-03-15T00:43:11.553Z,7.99
2023-03-15T00:45:39.909Z,7.91
2023-03-15T00:48:08.030Z,7.96
2023-03-15T00:50:36.321Z,7.98
2023-03-15T00:53:04.406Z,8.00
2023-03-15T00:55:33.795Z,7.99
2023-03-15T00:58:01.842Z,7.99
2023-03-15T01:00:30.100Z,8.03
2023-03-15T01:02:58.282Z,8.01
2023-03-15T01:05:26.986Z,7.97
2023-03-15T01:07:55.104Z,7.96
2023-03-15T01:10:23.235Z,7.98
2023-03-15T01:12:52.629Z,8.02
2023-03-15T01:15:20.797Z,8.07
2023-03-15T01:17:48.870Z,8.17
2023-03-15T01:20:17.317Z,8.19
2023-03-15T01:22:45.434Z,8.20
2023-03-15T01:25:15.573Z,8.26
2023-03-15T01:27:43.646Z,8.28
2023-03-15T01:30:13.936Z,8.29
2023-03-15T01:32:42.061Z,8.33
2023-03-15T01:35:10.541Z,8.36
2023-03-15T01:37:38.716Z,8.37
2023-03-15T01:40:09.660Z,8.41
2023-03-15T01:42:52.970Z,8.37
2023-03-15T01:46:02.750Z,8.29
2023-03-15T01:48:38.029Z,8.21
2023-03-15T01:51:12.575Z,8.15
2023-03-15T01:53:43.497Z,8.14
2023-03-15T01:56:12.459Z,8.15
2023-03-15T01:58:44.723Z,8.09
2023-03-15T02:01:16.237Z,8.06
2023-03-15T02:03:51.781Z,8.00
2023-03-15T02:06:23.290Z,7.96
2023-03-15T02:09:01.075Z,7.91
2023-03-15T02:11:35.836Z,7.93
2023-03-15T02:14:07.106Z,7.99
2023-03-15T02:16:42.105Z,8.03
2023-03-15T02:19:26.753Z,8.02
2023-03-15T02:22:02.508Z,7.99
2023-03-15T02:24:39.125Z,7.99
2023-03-15T02:27:07.950Z,7.99
2023-03-15T02:29:37.517Z,8.01
2023-03-15T02:32:06.074Z,8.03
2023-03-15T02:34:34.151Z,8.06
2023-03-15T02:37:04.395Z,8.04
2023-03-15T02:39:32.414Z,8.04
2023-03-15T02:42:01.968Z,7.99
2023-03-15T02:44:33.737Z,8.00
2023-03-15T02:47:07.390Z,7.97
2023-03-15T02:49:40.728Z,7.97
2023-03-15T02:52:10.156Z,7.92
2023-03-15T02:54:39.386Z,7.84
2023-03-15T02:57:09.633Z,7.82
2023-03-15T02:59:38.000Z,7.83
2023-03-15T03:02:07.964Z,7.83
2023-03-15T03:04:36.082Z,7.79
2023-03-15T03:07:04.227Z,7.77
2023-03-15T03:09:39.988Z,7.75
2023-03-15T03:12:09.073Z,7.72
2023-03-15T03:14:37.178Z,7.69
2023-03-15T03:17:10.697Z,7.60
2023-03-15T03:19:40.162Z,7.57
2023-03-15T03:22:08.490Z,7.55
2023-03-15T03:24:36.597Z,7.55
2023-03-15T03:27:05.006Z,7.55
2023-03-15T03:29:36.442Z,7.55
2023-03-15T03:32:06.566Z,7.55
2023-03-15T03:34:36.106Z,7.63
2023-03-15T03:37:04.615Z,7.67
2023-03-15T03:39:49.702Z,7.72
2023-03-15T03:42:18.022Z,7.74
2023-03-15T03:44:46.109Z,7.71
2023-03-15T03:47:14.532Z,7.63
2023-03-15T03:49:43.920Z,7.56
2023-03-15T03:52:12.106Z,7.46
2023-03-15T03:54:40.143Z,7.38
2023-03-15T03:57:09.134Z,7.29
2023-03-15T03:59:37.538Z,7.22
2023-03-15T04:02:06.919Z,7.16
2023-03-15T04:04:36.298Z,7.11
2023-03-15T04:07:07.571Z,7.08
2023-03-15T04:09:38.330Z,7.04
2023-03-15T04:12:07.652Z,7.02
2023-03-15T04:14:37.760Z,6.97
2023-03-15T04:17:09.521Z,6.95
2023-03-15T04:19:38.748Z,6.86
2023-03-15T04:22:10.384Z,6.81
2023-03-15T04:24:56.813Z,6.81
2023-03-15T04:27:43.659Z,6.88
2023-03-15T04:30:31.395Z,6.90
2023-03-15T04:33:16.076Z,6.93
2023-03-15T04:36:07.146Z,6.98
2023-03-15T04:38:48.675Z,7.01
2023-03-15T04:41:36.588Z,7.00
2023-03-15T04:44:27.855Z,6.98
2023-03-15T04:47:22.750Z,7.01
2023-03-15T04:50:01.697Z,7.05
2023-03-15T04:52:52.727Z,7.16
2023-03-15T04:55:42.435Z,7.24
2023-03-15T04:58:36.628Z,7.38
2023-03-15T05:01:17.960Z,7.49
2023-03-15T05:04:12.012Z,7.53
2023-03-15T05:07:15.491Z,7.63
2023-03-15T05:10:06.732Z,7.68
2023-03-15T05:12:36.210Z,7.62
2023-03-15T05:15:22.801Z,7.70
2023-03-15T05:17:55.222Z,7.63
2023-03-15T05:20:29.436Z,7.63
2023-03-15T05:23:11.790Z,7.65
2023-03-15T05:25:58.146Z,7.62
2023-03-15T05:28:52.489Z,7.52
2023-03-15T05:31:20.991Z,7.41
2023-03-15T05:33:55.092Z,7.39
2023-03-15T05:36:46.495Z,7.27
2023-03-15T05:39:34.736Z,7.27
2023-03-15T05:42:11.668Z,7.30
2023-03-15T05:45:11.420Z,7.26
2023-03-15T05:47:57.674Z,7.20
2023-03-15T05:50:34.991Z,7.17
2023-03-15T05:53:22.609Z,7.07
2023-03-15T05:56:10.951Z,7.09
2023-03-15T05:58:57.348Z,7.08
2023-03-15T06:01:39.226Z,7.12
2023-03-15T06:04:15.311Z,7.12
2023-03-15T06:06:43.498Z,7.07
2023-03-15T06:09:12.928Z,7.04
2023-03-15T06:11:41.097Z,7.07
2023-03-15T06:14:12.933Z,7.10
2023-03-15T06:16:57.733Z,7.12
2023-03-15T06:19:27.372Z,7.13
2023-03-15T06:21:56.371Z,7.12
2023-03-15T06:24:31.329Z,7.09
2023-03-15T06:26:59.533Z,7.10
2023-03-15T06:29:27.799Z,7.08
2023-03-15T06:31:59.412Z,7.09
2023-03-15T06:34:28.811Z,7.03
2023-03-15T06:36:57.094Z,7.04
2023-03-15T06:39:25.177Z,7.10
2023-03-15T06:41:57.365Z,7.16
2023-03-15T06:44:27.262Z,7.22
2023-03-15T06:47:00.673Z,7.22
2023-03-15T06:49:28.821Z,7.20
2023-03-15T06:51:57.226Z,7.22
2023-03-15T06:54:25.597Z,7.28
2023-03-15T06:56:53.779Z,7.27
2023-03-15T06:59:21.825Z,7.40
2023-03-15T07:01:50.121Z,7.49
2023-03-15T07:04:19.662Z,7.63
2023-03-15T07:06:47.770Z,7.72
2023-03-15T07:09:15.777Z,7.76
2023-03-15T07:11:44.075Z,7.89
2023-03-15T07:14:12.197Z,7.97
2023-03-15T07:16:40.284Z,8.02
2023-03-15T07:19:08.371Z,8.12
2023-03-15T07:21:37.829Z,8.14
2023-03-15T07:24:06.368Z,8.11
2023-03-15T07:26:34.469Z,8.28
2023-03-15T07:29:02.556Z,8.37
2023-03-15T07:31:30.541Z,8.50
2023-03-15T07:33:58.631Z,8.70
2023-03-15T07:36:26.755Z,9.04
2023-03-15T07:38:56.148Z,9.53
2023-03-15T07:41:24.197Z,9.86
2023-03-15T07:44:07.445Z,10.21
2023-03-15T07:46:35.609Z,10.34
2023-03-15T07:49:03.703Z,10.52
2023-03-15T07:51:32.170Z,10.60
2023-03-15T07:54:01.593Z,10.67
2023-03-15T07:56:29.698Z,10.67
2023-03-15T07:58:57.747Z,10.65
2023-03-15T08:01:25.727Z,10.60
2023-03-15T08:03:53.758Z,10.59
2023-03-15T08:06:21.846Z,10.59
2023-03-15T08:08:49.838Z,10.71
2023-03-15T08:11:19.504Z,10.84
2023-03-15T08:13:47.959Z,10.87
2023-03-15T08:16:16.072Z,10.93
2023-03-15T08:18:44.199Z,10.98
2023-03-15T08:21:12.188Z,11.15
2023-03-15T08:23:40.596Z,11.26
2023-03-15T08:26:08.735Z,11.47
2023-03-15T08:28:38.111Z,11.56
2023-03-15T08:31:08.797Z,11.70
2023-03-15T08:33:36.965Z,11.84
2023-03-15T08:36:05.309Z,11.90
2023-03-15T08:38:33.364Z,11.92
2023-03-15T08:41:01.480Z,11.93
2023-03-15T08:43:29.516Z,11.93
2023-03-15T08:46:01.721Z,11.97
2023-03-15T08:48:30.261Z,12.06
2023-03-15T08:51:02.378Z,12.22
2023-03-15T08:53:30.624Z,12.51
2023-03-15T08:55:58.993Z,12.55
2023-03-15T08:58:27.036Z,12.69
2023-03-15T09:00:55.026Z,12.67
2023-03-15T09:03:24.450Z,12.71
2023-03-15T09:05:57.400Z,12.59
2023-03-15T09:08:26.294Z,12.51
2023-03-15T09:10:55.846Z,12.37
2023-03-15T09:13:24.282Z,12.43
2023-03-15T09:15:52.751Z,12.56
2023-03-15T09:18:21.491Z,12.90
2023-03-15T09:20:50.990Z,13.27
2023-03-15T09:23:19.027Z,13.61
2023-03-15T09:25:47.109Z,13.85
2023-03-15T09:28:15.170Z,14.03
2023-03-15T09:30:43.993Z,14.10
2023-03-15T09:33:14.674Z,13.94
2023-03-15T09:35:43.073Z,13.85
2023-03-15T09:38:12.818Z,13.90
2023-03-15T09:40:45.041Z,13.92
2023-03-15T09:43:38.968Z,13.74
2023-03-15T09:46:18.145Z,13.50
2023-03-15T09:48:53.416Z,13.02
2023-03-15T09:51:37.228Z,12.32
2023-03-15T09:54:12.264Z,11.83
2023-03-15T09:56:45.661Z,11.69
2023-03-15T09:59:16.387Z,11.61
2023-03-15T10:01:45.295Z,11.54
2023-03-15T10:04:20.156Z,11.40
2023-03-15T10:06:54.777Z,11.34
2023-03-15T10:09:26.763Z,11.34
2023-03-15T10:12:03.795Z,11.53
2023-03-15T10:14:44.759Z,12.27
2023-03-15T10:17:14.562Z,13.21
2023-03-15T10:19:51.075Z,13.81
2023-03-15T10:22:25.845Z,14.12
2023-03-15T10:25:00.757Z,14.09
2023-03-15T10:27:35.886Z,13.93
2023-03-15T10:30:14.216Z,13.89
2023-03-15T10:32:45.976Z,13.82
2023-03-15T10:35:16.627Z,13.82
2023-03-15T10:37:45.086Z,13.76
2023-03-15T10:40:16.706Z,13.63
2023-03-15T10:42:46.286Z,13.59
2023-03-15T10:45:21.857Z,13.60
2023-03-15T10:47:59.605Z,13.39
2023-03-15T10:50:30.299Z,13.00
2023-03-15T10:52:59.695Z,12.50
2023-03-15T10:55:34.816Z,12.46
2023-03-15T10:58:20.164Z,12.43
2023-03-15T11:00:51.806Z,12.45
2023-03-15T11:03:21.694Z,12.60
2023-03-15T11:05:52.020Z,12.79
2023-03-15T11:08:22.101Z,12.88
2023-03-15T11:10:57.604Z,13.07
2023-03-15T11:13:27.214Z,13.46
2023-03-15T11:16:03.859Z,14.37
2023-03-15T11:18:37.041Z,15.33
2023-03-15T11:21:09.869Z,16.31
2023-03-15T11:23:40.320Z,17.35
2023-03-15T11:26:29.451Z,17.68
2023-03-15T11:29:02.540Z,17.08
2023-03-15T11:31:32.282Z,16.47
2023-03-15T11:34:04.491Z,16.01
2023-03-15T11:36:35.899Z,15.85
2023-03-15T11:39:05.789Z,15.81
2023-03-15T11:41:41.073Z,15.65
2023-03-15T11:44:18.053Z,15.97
2023-03-15T11:46:51.124Z,16.90
2023-03-15T11:49:24.968Z,17.87
2023-03-15T11:51:56.844Z,18.88
2023-03-15T11:54:27.769Z,19.18
2023-03-15T11:56:59.183Z,19.13
2023-03-15T11:59:29.875Z,19.21
2023-03-15T12:02:00.458Z,19.27
2023-03-15T12:04:45.101Z,19.47
2023-03-15T12:07:57.526Z,19.99
2023-03-15T12:10:46.520Z,20.17
2023-03-15T12:13:26.641Z,20.05
2023-03-15T12:15:55.797Z,19.76
2023-03-15T12:18:32.394Z,19.46
2023-03-15T12:21:16.339Z,19.61
2023-03-15T12:23:57.940Z,19.53
2023-03-15T12:26:32.184Z,19.86
2023-03-15T12:29:23.451Z,19.85
2023-03-15T12:31:55.640Z,19.62
2023-03-15T12:34:37.330Z,20.02
2023-03-15T12:37:09.856Z,20.53
2023-03-15T12:39:45.935Z,21.16
2023-03-15T12:42:36.196Z,21.02
2023-03-15T12:45:37.684Z,21.13
2023-03-15T12:48:25.896Z,21.67
2023-03-15T12:50:59.974Z,21.48
2023-03-15T12:53:49.046Z,21.11
2023-03-15T12:56:32.829Z,21.21
2023-03-15T12:59:07.120Z,21.07
2023-03-15T13:01:36.956Z,20.31
2023-03-15T13:04:05.629Z,20.35
2023-03-15T13:06:46.464Z,20.50
2023-03-15T13:09:27.323Z,20.75
2023-03-15T13:12:02.444Z,20.93
2023-03-15T13:14:43.111Z,20.65
2023-03-15T13:17:28.206Z,20.85
2023-03-15T13:20:18.938Z,20.78
2023-03-15T13:22:56.003Z,20.56
2023-03-15T13:25:31.833Z,20.35
2023-03-15T13:28:04.072Z,20.84
2023-03-15T13:30:35.708Z,20.79
2023-03-15T13:33:21.614Z,20.50
2023-03-15T13:35:56.412Z,20.57
2023-03-15T13:38:31.514Z,20.15
2023-03-15T13:41:01.964Z,20.28
2023-03-15T13:43:33.206Z,20.77
2023-03-15T13:46:02.301Z,21.42
2023-03-15T13:48:34.220Z,21.23
2023-03-15T13:51:06.274Z,21.17
2023-03-15T13:53:49.180Z,21.04
2023-03-15T13:56:21.214Z,21.05
2023-03-15T13:58:52.074Z,21.13
2023-03-15T14:01:23.225Z,21.15
2023-03-15T14:03:58.258Z,21.24
2023-03-15T14:06:28.248Z,21.50
2023-03-15T14:09:01.991Z,21.43
2023-03-15T14:11:37.481Z,21.34
2023-03-15T14:14:23.262Z,20.91
2023-03-15T14:17:04.231Z,20.62
2023-03-15T14:19:37.020Z,20.94
2023-03-15T14:22:15.567Z,21.30
2023-03-15T14:24:46.050Z,20.84
2023-03-15T14:27:18.416Z,19.86
2023-03-15T14:29:49.802Z,19.60
2023-03-15T14:32:30.898Z,19.21
2023-03-15T14:35:08.085Z,18.97
2023-03-15T14:37:42.040Z,19.10
2023-03-15T14:40:18.369Z,18.95
2023-03-15T14:42:50.496Z,19.23
2023-03-15T14:45:22.173Z,19.75
2023-03-15T14:47:57.249Z,19.68
2023-03-15T14:50:29.342Z,19.26
2023-03-15T14:52:59.502Z,18.73
2023-03-15T14:55:33.536Z,18.78
2023-03-15T14:58:02.210Z,18.84
2023-03-15T15:00:31.271Z,19.06
2023-03-15T15:03:00.118Z,19.27
2023-03-15T15:05:31.889Z,19.27
2023-03-15T15:08:05.426Z,18.97
2023-03-15T15:10:34.976Z,19.00
2023-03-15T15:13:06.869Z,19.26
2023-03-15T15:15:51.769Z,19.18
2023-03-15T15:18:23.750Z,19.11
2023-03-15T15:20:56.126Z,19.18
2023-03-15T15:23:27.287Z,19.27
2023-03-15T15:25:59.205Z,19.14
2023-03-15T15:28:35.349Z,19.02
2023-03-15T15:31:08.199Z,18.97
2023-03-15T15:33:36.741Z,18.74
2023-03-15T15:36:12.422Z,18.72
2023-03-15T15:38:41.253Z,18.79
2023-03-15T15:41:17.128Z,18.71
2023-03-15T15:43:45.396Z,18.63
2023-03-15T15:46:13.908Z,18.58
2023-03-15T15:48:42.764Z,18.33
2023-03-15T15:51:22.860Z,18.19
2023-03-15T15:53:51.871Z,17.91
2023-03-15T15:56:20.305Z,17.74
2023-03-15T15:58:49.982Z,17.58
2023-03-15T16:01:18.270Z,17.37
2023-03-15T16:03:46.579Z,17.34
2023-03-15T16:06:21.784Z,17.29
2023-03-15T16:08:53.692Z,17.25
2023-03-15T16:11:22.772Z,17.24
2023-03-15T16:13:54.041Z,17.22
2023-03-15T16:16:22.837Z,17.04
2023-03-15T16:18:51.246Z,16.96
2023-03-15T16:21:28.937Z,16.86
2023-03-15T16:24:00.611Z,16.77
2023-03-15T16:26:29.240Z,16.62
2023-03-15T16:28:57.516Z,16.49
2023-03-15T16:31:25.976Z,16.40
2023-03-15T16:33:54.270Z,16.34
2023-03-15T16:36:25.396Z,16.25
2023-03-15T16:38:53.678Z,16.19
2023-03-15T16:41:22.014Z,16.08
2023-03-15T16:43:50.278Z,15.78
2023-03-15T16:46:19.075Z,15.63
2023-03-15T16:48:47.449Z,15.57
2023-03-15T16:51:17.379Z,15.31
2023-03-15T16:53:47.084Z,15.22
2023-03-15T16:56:16.483Z,15.10
2023-03-15T16:58:45.922Z,14.84
2023-03-15T17:01:14.183Z,14.71
2023-03-15T17:03:42.856Z,14.56
2023-03-15T17:06:20.245Z,14.40
2023-03-15T17:08:50.851Z,14.23
2023-03-15T17:11:19.618Z,14.11
2023-03-15T17:13:48.423Z,14.01
2023-03-15T17:16:17.131Z,13.92
2023-03-15T17:18:47.744Z,13.82
2023-03-15T17:21:19.778Z,13.67
2023-03-15T17:23:50.706Z,13.56
2023-03-15T17:26:21.019Z,13.44
2023-03-15T17:28:51.010Z,13.34
2023-03-15T17:31:25.560Z,13.23
2023-03-15T17:33:54.590Z,13.11
2023-03-15T17:36:24.931Z,13.01
2023-03-15T17:38:55.241Z,12.90
2023-03-15T17:41:26.107Z,12.78
2023-03-15T17:43:54.847Z,12.69
2023-03-15T17:46:29.947Z,12.62
2023-03-15T17:48:59.371Z,12.55
2023-03-15T17:51:30.329Z,12.47
2023-03-15T17:54:00.751Z,12.42
2023-03-15T17:56:30.113Z,12.36
2023-03-15T17:58:58.884Z,12.29
2023-03-15T18:01:29.182Z,12.17
2023-03-15T18:03:58.520Z,12.03
2023-03-15T18:06:26.922Z,11.88
2023-03-15T18:08:55.228Z,11.76
2023-03-15T18:11:28.460Z,11.66
2023-03-15T18:13:57.222Z,11.57
2023-03-15T18:16:25.842Z,11.45
2023-03-15T18:18:54.178Z,11.33
2023-03-15T18:21:24.450Z,11.22
2023-03-15T18:23:53.149Z,11.12
2023-03-15T18:26:22.890Z,11.03
2023-03-15T18:28:52.931Z,10.90
2023-03-15T18:31:52.846Z,10.81
2023-03-15T18:34:22.005Z,10.70
2023-03-15T18:36:50.142Z,10.59
2023-03-15T18:39:18.658Z,10.52
2023-03-15T18:41:46.878Z,10.42
2023-03-15T18:44:16.283Z,10.31
2023-03-15T18:46:48.054Z,10.22
2023-03-15T18:49:16.138Z,10.11
2023-03-15T18:51:44.284Z,10.01
2023-03-15T18:54:12.347Z,9.94
2023-03-15T18:56:40.457Z,9.86
2023-03-15T18:59:08.822Z,9.79
2023-03-15T19:01:38.424Z,9.70
2023-03-15T19:04:06.623Z,9.61
2023-03-15T19:06:34.964Z,9.52
2023-03-15T19:09:03.039Z,9.47
2023-03-15T19:11:31.745Z,9.40
2023-03-15T19:13:59.987Z,9.36
2023-03-15T19:16:30.568Z,9.29
2023-03-15T19:19:00.124Z,9.20
2023-03-15T19:21:28.446Z,9.14
2023-03-15T19:23:58.158Z,9.07
2023-03-15T19:26:26.627Z,9.01
2023-03-15T19:28:56.219Z,8.95
2023-03-15T19:31:24.508Z,8.89
2023-03-15T19:33:52.694Z,8.83
2023-03-15T19:36:24.066Z,8.78
2023-03-15T19:38:52.153Z,8.72
2023-03-15T19:41:20.207Z,8.63
2023-03-15T19:43:48.219Z,8.58
2023-03-15T19:46:17.356Z,8.53
2023-03-15T19:48:45.452Z,8.49
2023-03-15T19:51:13.494Z,8.44
2023-03-15T19:53:42.952Z,8.39
2023-03-15T19:56:11.582Z,8.33
2023-03-15T19:58:39.629Z,8.30
2023-03-15T20:01:07.726Z,8.23
2023-03-15T20:03:35.830Z,8.19
2023-03-15T20:06:08.991Z,8.13
2023-03-15T20:08:37.120Z,8.09
2023-03-15T20:11:07.769Z,8.05
2023-03-15T20:13:36.911Z,8.01
2023-03-15T20:16:05.843Z,7.94
2023-03-15T20:18:33.981Z,7.90
2023-03-15T20:21:02.069Z,7.87
2023-03-15T20:23:30.117Z,7.82
2023-03-15T20:26:09.829Z,7.76
2023-03-15T20:28:38.498Z,7.74
2023-03-15T20:31:08.534Z,7.73
2023-03-15T20:33:36.900Z,7.69
2023-03-15T20:36:05.880Z,7.67
2023-03-15T20:38:34.700Z,7.65
2023-03-15T20:41:02.747Z,7.65
2023-03-15T20:43:32.957Z,7.60
2023-03-15T20:46:03.103Z,7.56
2023-03-15T20:48:33.163Z,7.53
2023-03-15T20:51:03.779Z,7.49
2023-03-15T20:53:33.168Z,7.45
2023-03-15T20:56:01.751Z,7.43
2023-03-15T20:58:29.895Z,7.40
2023-03-15T21:01:05.629Z,7.34
2023-03-15T21:03:35.342Z,7.35
2023-03-15T21:06:04.519Z,7.34
2023-03-15T21:08:33.266Z,7.31
2023-03-15T21:11:01.538Z,7.26
2023-03-15T21:13:29.707Z,7.23
2023-03-15T21:15:58.032Z,7.19
2023-03-15T21:18:27.522Z,7.19
2023-03-15T21:21:00.376Z,7.16
2023-03-15T21:23:31.220Z,7.13
2023-03-15T21:26:00.282Z,7.13
2023-03-15T21:28:28.933Z,7.14
2023-03-15T21:30:57.230Z,7.16
2023-03-15T21:33:28.896Z,7.22
2023-03-15T21:35:58.955Z,7.24
2023-03-15T21:38:27.799Z,7.26
2023-03-15T21:40:59.316Z,7.26
2023-03-15T21:43:28.112Z,7.28
2023-03-15T21:45:56.308Z,7.29
2023-03-15T21:48:24.634Z,7.26
2023-03-15T21:50:54.331Z,7.26
2023-03-15T21:53:22.861Z,7.24
2023-03-15T21:55:50.926Z,7.23
2023-03-15T21:58:19.091Z,7.19
2023-03-15T22:00:47.091Z,7.16
2023-03-15T22:03:17.842Z,7.15
2023-03-15T22:05:46.809Z,7.16
2023-03-15T22:08:16.281Z,7.17
2023-03-15T22:10:44.304Z,7.25
2023-03-15T22:13:12.392Z,7.27
2023-03-15T22:15:40.416Z,7.31
2023-03-15T22:18:08.576Z,7.33
2023-03-15T22:20:36.648Z,7.37
2023-03-15T22:23:04.986Z,7.40
2023-03-15T22:25:34.784Z,7.37
2023-03-15T22:28:02.933Z,7.38
2023-03-15T22:30:31.455Z,7.40
2023-03-15T22:32:59.769Z,7.42
2023-03-15T22:35:28.011Z,7.42
2023-03-15T22:37:57.074Z,7.40
2023-03-15T22:40:26.398Z,7.39
2023-03-15T22:42:57.496Z,7.35
2023-03-15T22:45:26.087Z,7.35
2023-03-15T22:47:54.151Z,7.33
2023-03-15T22:50:22.232Z,7.33
2023-03-15T22:52:51.824Z,7.35
2023-03-15T22:55:20.707Z,7.38
2023-03-15T22:57:48.922Z,7.33
2023-03-15T23:00:23.190Z,7.34
2023-03-15T23:02:51.852Z,7.33
2023-03-15T23:05:21.236Z,7.35
2023-03-15T23:07:49.264Z,7.37
2023-03-15T23:10:17.519Z,7.39
2023-03-15T23:12:46.041Z,7.41
2023-03-15T23:15:14.804Z,7.40
2023-03-15T23:17:46.482Z,7.44
2023-03-15T23:20:15.764Z,7.45
2023-03-15T23:22:44.479Z,7.47
2023-03-15T23:25:14.181Z,7.50
2023-03-15T23:27:42.637Z,7.52
2023-03-15T23:30:11.781Z,7.57
2023-03-15T23:32:40.088Z,7.60
2023-03-15T23:35:12.611Z,7.53
2023-03-15T23:37:41.041Z,7.56
2023-03-15T23:40:15.224Z,7.58
2023-03-15T23:42:43.942Z,7.64
2023-03-15T23:45:13.315Z,7.68
2023-03-15T23:47:41.496Z,7.68
2023-03-15T23:50:13.718Z,7.71
2023-03-15T23:52:42.314Z,7.75
2023-03-15T23:55:11.493Z,7.72
2023-03-15T23:57:39.607Z,7.71
